sensor_id;sensor_type;location;lat;lon;timestamp;pressure;altitude;pressure_sealevel;temperature;humidity
54369;BME280;40266;52.434;17.056;2023-03-31T00:01:33;99576.10;;;8.07;100.00
54369;BME280;40266;52.434;17.056;2023-03-31T00:04:18;99561.18;;;8.12;100.00
54369;BME280;40266;52.434;17.056;2023-03-31T00:07:06;99573.59;;;8.18;100.00
54369;BME280;40266;52.434;17.056;2023-03-31T00:09:51;99573.67;;;8.21;100.00
54369;BME280;40266;52.434;17.056;2023-03-31T00:12:59;99571.89;;;8.22;100.00
54369;BME280;40266;52.434;17.056;2023-03-31T00:15:43;99565.29;;;8.22;100.00
54369;BME280;40266;52.434;17.056;2023-03-31T00:18:27;99569.99;;;8.21;100.00
54369;BME280;40266;52.434;17.056;2023-03-31T00:21:14;99573.54;;;8.20;99.98
54369;BME280;40266;52.434;17.056;2023-03-31T00:24:10;99572.09;;;8.14;99.96
54369;BME280;40266;52.434;17.056;2023-03-31T00:26:53;99567.33;;;8.10;99.83
54369;BME280;40266;52.434;17.056;2023-03-31T00:29:37;99570.34;;;8.08;99.82
54369;BME280;40266;52.434;17.056;2023-03-31T00:32:23;99573.02;;;8.05;99.80
54369;BME280;40266;52.434;17.056;2023-03-31T00:35:07;99567.38;;;8.02;99.65
54369;BME280;40266;52.434;17.056;2023-03-31T00:37:50;99567.12;;;7.98;99.82
54369;BME280;40266;52.434;17.056;2023-03-31T00:40:35;99563.03;;;7.94;100.00
54369;BME280;40266;52.434;17.056;2023-03-31T00:46:21;99560.28;;;7.86;99.86
54369;BME280;40266;52.434;17.056;2023-03-31T00:49:13;99562.14;;;7.80;99.76
54369;BME280;40266;52.434;17.056;2023-03-31T00:52:17;99567.14;;;7.75;99.79
54369;BME280;40266;52.434;17.056;2023-03-31T00:55:07;99562.41;;;7.69;99.96
54369;BME280;40266;52.434;17.056;2023-03-31T00:57:53;99559.88;;;7.66;100.00
54369;BME280;40266;52.434;17.056;2023-03-31T01:00:37;99556.45;;;7.64;100.00
54369;BME280;40266;52.434;17.056;2023-03-31T01:03:25;99559.85;;;7.59;100.00
54369;BME280;40266;52.434;17.056;2023-03-31T01:06:15;99557.35;;;7.55;100.00
54369;BME280;40266;52.434;17.056;2023-03-31T01:09:19;99555.86;;;7.52;100.00
54369;BME280;40266;52.434;17.056;2023-03-31T01:12:09;99547.03;;;7.51;100.00
54369;BME280;40266;52.434;17.056;2023-03-31T01:15:09;99548.10;;;7.50;100.00
54369;BME280;40266;52.434;17.056;2023-03-31T01:18:16;99544.48;;;7.48;100.00
54369;BME280;40266;52.434;17.056;2023-03-31T01:24:24;99543.89;;;7.43;100.00
54369;BME280;40266;52.434;17.056;2023-03-31T01:46:30;99528.56;;;7.30;100.00
54369;BME280;40266;52.434;17.056;2023-03-31T01:49:19;99528.96;;;7.27;100.00
54369;BME280;40266;52.434;17.056;2023-03-31T01:55:01;99530.98;;;7.22;100.00
54369;BME280;40266;52.434;17.056;2023-03-31T01:57:53;99521.13;;;7.21;100.00
54369;BME280;40266;52.434;17.056;2023-03-31T02:00:43;99517.65;;;7.21;100.00
54369;BME280;40266;52.434;17.056;2023-03-31T02:03:35;99518.84;;;7.22;100.00
54369;BME280;40266;52.434;17.056;2023-03-31T02:06:23;99516.20;;;7.23;100.00
54369;BME280;40266;52.434;17.056;2023-03-31T02:09:11;99512.69;;;7.25;100.00
54369;BME280;40266;52.434;17.056;2023-03-31T02:11:56;99511.06;;;7.28;100.00
54369;BME280;40266;52.434;17.056;2023-03-31T02:14:44;99512.20;;;7.32;100.00
54369;BME280;40266;52.434;17.056;2023-03-31T02:17:30;99508.45;;;7.36;100.00
54369;BME280;40266;52.434;17.056;2023-03-31T02:20:16;99504.55;;;7.40;100.00
54369;BME280;40266;52.434;17.056;2023-03-31T02:23:01;99508.81;;;7.43;100.00
54369;BME280;40266;52.434;17.056;2023-03-31T02:25:50;99509.58;;;7.48;100.00
54369;BME280;40266;52.434;17.056;2023-03-31T02:28:35;99503.04;;;7.53;100.00
54369;BME280;40266;52.434;17.056;2023-03-31T02:34:50;99497.27;;;7.61;100.00
54369;BME280;40266;52.434;17.056;2023-03-31T02:37:33;99493.71;;;7.64;100.00
54369;BME280;40266;52.434;17.056;2023-03-31T02:40:19;99493.98;;;7.67;100.00
54369;BME280;40266;52.434;17.056;2023-03-31T02:43:03;99488.85;;;7.71;100.00
54369;BME280;40266;52.434;17.056;2023-03-31T02:45:49;99484.43;;;7.74;100.00
54369;BME280;40266;52.434;17.056;2023-03-31T02:48:36;99483.86;;;7.76;100.00
54369;BME280;40266;52.434;17.056;2023-03-31T03:12:47;99463.62;;;7.94;100.00
54369;BME280;40266;52.434;17.056;2023-03-31T03:15:39;99460.30;;;7.94;100.00
54369;BME280;40266;52.434;17.056;2023-03-31T03:18:26;99458.52;;;7.95;100.00
54369;BME280;40266;52.434;17.056;2023-03-31T03:21:09;99453.98;;;7.96;100.00
54369;BME280;40266;52.434;17.056;2023-03-31T03:23:52;99454.15;;;7.96;100.00
54369;BME280;40266;52.434;17.056;2023-03-31T03:26:36;99456.23;;;7.97;100.00
54369;BME280;40266;52.434;17.056;2023-03-31T03:29:19;99452.57;;;7.97;100.00
54369;BME280;40266;52.434;17.056;2023-03-31T03:32:02;99454.62;;;7.98;100.00
54369;BME280;40266;52.434;17.056;2023-03-31T03:34:45;99457.21;;;7.99;100.00
54369;BME280;40266;52.434;17.056;2023-03-31T03:37:29;99452.86;;;7.99;100.00
54369;BME280;40266;52.434;17.056;2023-03-31T03:40:12;99451.09;;;8.00;100.00
54369;BME280;40266;52.434;17.056;2023-03-31T03:42:55;99450.05;;;8.00;100.00
54369;BME280;40266;52.434;17.056;2023-03-31T03:45:38;99447.39;;;8.02;100.00
54369;BME280;40266;52.434;17.056;2023-03-31T03:48:21;99441.32;;;8.02;100.00
54369;BME280;40266;52.434;17.056;2023-03-31T03:51:04;99437.48;;;8.02;100.00
54369;BME280;40266;52.434;17.056;2023-03-31T03:53:48;99436.25;;;8.03;100.00
54369;BME280;40266;52.434;17.056;2023-03-31T03:56:31;99434.16;;;8.03;100.00
54369;BME280;40266;52.434;17.056;2023-03-31T03:59:14;99430.33;;;8.03;100.00
54369;BME280;40266;52.434;17.056;2023-03-31T04:01:57;99429.63;;;8.04;100.00
54369;BME280;40266;52.434;17.056;2023-03-31T04:04:40;99429.41;;;8.05;100.00
54369;BME280;40266;52.434;17.056;2023-03-31T04:07:23;99428.70;;;8.05;100.00
54369;BME280;40266;52.434;17.056;2023-03-31T04:10:06;99426.63;;;8.04;100.00
54369;BME280;40266;52.434;17.056;2023-03-31T04:12:49;99425.23;;;8.04;100.00
54369;BME280;40266;52.434;17.056;2023-03-31T04:15:32;99423.14;;;8.05;100.00
54369;BME280;40266;52.434;17.056;2023-03-31T04:18:15;99420.70;;;8.05;100.00
54369;BME280;40266;52.434;17.056;2023-03-31T04:21:12;99416.73;;;8.05;100.00
54369;BME280;40266;52.434;17.056;2023-03-31T04:24:05;99416.20;;;8.04;100.00
54369;BME280;40266;52.434;17.056;2023-03-31T04:26:48;99414.83;;;8.04;100.00
54369;BME280;40266;52.434;17.056;2023-03-31T04:29:32;99414.16;;;8.03;100.00
54369;BME280;40266;52.434;17.056;2023-03-31T04:32:15;99407.90;;;8.02;100.00
54369;BME280;40266;52.434;17.056;2023-03-31T04:35:03;99403.08;;;8.01;100.00
54369;BME280;40266;52.434;17.056;2023-03-31T04:37:47;99401.85;;;8.02;100.00
54369;BME280;40266;52.434;17.056;2023-03-31T04:40:30;99407.07;;;8.01;100.00
54369;BME280;40266;52.434;17.056;2023-03-31T04:43:14;99399.52;;;8.04;100.00
54369;BME280;40266;52.434;17.056;2023-03-31T04:45:57;99397.73;;;8.06;100.00
54369;BME280;40266;52.434;17.056;2023-03-31T04:48:41;99396.10;;;8.08;100.00
54369;BME280;40266;52.434;17.056;2023-03-31T04:51:24;99392.59;;;8.09;100.00
54369;BME280;40266;52.434;17.056;2023-03-31T04:54:07;99393.58;;;8.12;100.00
54369;BME280;40266;52.434;17.056;2023-03-31T04:56:50;99390.25;;;8.13;100.00
54369;BME280;40266;52.434;17.056;2023-03-31T04:59:33;99382.55;;;8.14;100.00
54369;BME280;40266;52.434;17.056;2023-03-31T05:02:16;99381.77;;;8.17;100.00
54369;BME280;40266;52.434;17.056;2023-03-31T05:05:07;99378.24;;;8.19;100.00
54369;BME280;40266;52.434;17.056;2023-03-31T05:07:53;99376.59;;;8.22;100.00
54369;BME280;40266;52.434;17.056;2023-03-31T05:10:37;99374.58;;;8.25;100.00
54369;BME280;40266;52.434;17.056;2023-03-31T05:13:20;99372.95;;;8.28;100.00
54369;BME280;40266;52.434;17.056;2023-03-31T05:16:07;99369.89;;;8.31;100.00
54369;BME280;40266;52.434;17.056;2023-03-31T05:19:04;99361.79;;;8.34;100.00
54369;BME280;40266;52.434;17.056;2023-03-31T05:21:47;99365.52;;;8.38;100.00
54369;BME280;40266;52.434;17.056;2023-03-31T05:24:32;99360.02;;;8.43;100.00
54369;BME280;40266;52.434;17.056;2023-03-31T05:27:16;99366.15;;;8.47;100.00
54369;BME280;40266;52.434;17.056;2023-03-31T05:30:06;99366.25;;;8.50;100.00
54369;BME280;40266;52.434;17.056;2023-03-31T05:32:56;99368.20;;;8.54;100.00
54369;BME280;40266;52.434;17.056;2023-03-31T05:35:43;99367.23;;;8.57;100.00
54369;BME280;40266;52.434;17.056;2023-03-31T05:38:27;99364.74;;;8.59;100.00
54369;BME280;40266;52.434;17.056;2023-03-31T05:41:16;99363.38;;;8.64;100.00
54369;BME280;40266;52.434;17.056;2023-03-31T05:43:59;99363.09;;;8.68;100.00
54369;BME280;40266;52.434;17.056;2023-03-31T05:47:09;99353.55;;;8.72;100.00
54369;BME280;40266;52.434;17.056;2023-03-31T05:50:02;99358.77;;;8.78;100.00
54369;BME280;40266;52.434;17.056;2023-03-31T05:53:06;99351.66;;;8.83;100.00
54369;BME280;40266;52.434;17.056;2023-03-31T05:56:27;99346.10;;;8.88;100.00
54369;BME280;40266;52.434;17.056;2023-03-31T05:59:31;99351.84;;;8.99;100.00
54369;BME280;40266;52.434;17.056;2023-03-31T06:02:27;99352.36;;;9.04;100.00
54369;BME280;40266;52.434;17.056;2023-03-31T06:05:18;99353.98;;;9.14;100.00
54369;BME280;40266;52.434;17.056;2023-03-31T06:08:14;99349.95;;;9.20;100.00
54369;BME280;40266;52.434;17.056;2023-03-31T06:11:09;99352.23;;;9.30;100.00
54369;BME280;40266;52.434;17.056;2023-03-31T06:13:57;99348.96;;;9.44;100.00
54369;BME280;40266;52.434;17.056;2023-03-31T06:16:49;99344.98;;;9.54;100.00
54369;BME280;40266;52.434;17.056;2023-03-31T06:19:39;99345.13;;;9.64;100.00
54369;BME280;40266;52.434;17.056;2023-03-31T06:22:22;99343.01;;;9.76;100.00
54369;BME280;40266;52.434;17.056;2023-03-31T06:25:05;99338.48;;;9.90;100.00
54369;BME280;40266;52.434;17.056;2023-03-31T06:27:52;99335.83;;;10.01;99.96
54369;BME280;40266;52.434;17.056;2023-03-31T06:30:35;99333.68;;;10.12;99.73
54369;BME280;40266;52.434;17.056;2023-03-31T06:33:19;99338.56;;;10.17;99.40
54369;BME280;40266;52.434;17.056;2023-03-31T06:36:02;99333.91;;;10.20;99.14
54369;BME280;40266;52.434;17.056;2023-03-31T06:38:48;99332.09;;;10.22;98.43
54369;BME280;40266;52.434;17.056;2023-03-31T06:41:31;99328.02;;;10.23;98.40
54369;BME280;40266;52.434;17.056;2023-03-31T06:44:14;99326.17;;;10.27;98.06
54369;BME280;40266;52.434;17.056;2023-03-31T06:46:58;99329.70;;;10.35;97.91
54369;BME280;40266;52.434;17.056;2023-03-31T06:49:42;99331.91;;;10.41;97.62
54369;BME280;40266;52.434;17.056;2023-03-31T06:52:27;99333.14;;;10.50;97.63
54369;BME280;40266;52.434;17.056;2023-03-31T06:55:11;99326.73;;;10.58;97.45
54369;BME280;40266;52.434;17.056;2023-03-31T06:57:55;99324.33;;;10.70;97.03
54369;BME280;40266;52.434;17.056;2023-03-31T07:00:40;99323.40;;;10.81;96.75
54369;BME280;40266;52.434;17.056;2023-03-31T07:03:23;99325.52;;;10.93;96.58
54369;BME280;40266;52.434;17.056;2023-03-31T07:06:07;99327.49;;;11.09;96.41
54369;BME280;40266;52.434;17.056;2023-03-31T07:08:50;99326.53;;;11.24;96.22
54369;BME280;40266;52.434;17.056;2023-03-31T07:11:40;99324.05;;;11.37;95.59
54369;BME280;40266;52.434;17.056;2023-03-31T07:14:23;99326.75;;;11.52;94.74
54369;BME280;40266;52.434;17.056;2023-03-31T07:17:08;99323.36;;;11.66;94.20
54369;BME280;40266;52.434;17.056;2023-03-31T07:19:51;99321.73;;;11.83;93.85
54369;BME280;40266;52.434;17.056;2023-03-31T07:22:38;99317.27;;;12.09;93.01
54369;BME280;40266;52.434;17.056;2023-03-31T07:25:26;99308.20;;;12.24;92.30
54369;BME280;40266;52.434;17.056;2023-03-31T07:28:09;99317.56;;;12.37;92.15
54369;BME280;40266;52.434;17.056;2023-03-31T07:30:53;99318.70;;;12.58;91.61
54369;BME280;40266;52.434;17.056;2023-03-31T07:33:46;99320.48;;;12.79;90.42
54369;BME280;40266;52.434;17.056;2023-03-31T07:36:37;99319.75;;;12.87;89.91
54369;BME280;40266;52.434;17.056;2023-03-31T07:40:02;99319.12;;;12.89;89.19
54369;BME280;40266;52.434;17.056;2023-03-31T07:43:18;99319.80;;;13.01;88.69
54369;BME280;40266;52.434;17.056;2023-03-31T07:46:23;99311.04;;;13.08;88.02
54369;BME280;40266;52.434;17.056;2023-03-31T07:49:20;99304.68;;;13.09;86.89
54369;BME280;40266;52.434;17.056;2023-03-31T07:52:06;99304.76;;;13.07;86.43
54369;BME280;40266;52.434;17.056;2023-03-31T07:54:53;99303.55;;;13.07;86.36
54369;BME280;40266;52.434;17.056;2023-03-31T07:57:36;99300.17;;;13.18;86.42
54369;BME280;40266;52.434;17.056;2023-03-31T08:00:20;99304.66;;;13.41;85.90
54369;BME280;40266;52.434;17.056;2023-03-31T08:03:04;99300.58;;;13.56;85.01
54369;BME280;40266;52.434;17.056;2023-03-31T08:05:51;99298.73;;;13.61;84.51
54369;BME280;40266;52.434;17.056;2023-03-31T08:08:36;99294.27;;;13.70;84.38
54369;BME280;40266;52.434;17.056;2023-03-31T08:11:20;99283.80;;;13.95;83.90
54369;BME280;40266;52.434;17.056;2023-03-31T08:14:03;99283.40;;;14.32;83.79
54369;BME280;40266;52.434;17.056;2023-03-31T08:16:50;99277.65;;;14.69;83.48
54369;BME280;40266;52.434;17.056;2023-03-31T08:19:35;99280.21;;;14.98;82.64
54369;BME280;40266;52.434;17.056;2023-03-31T08:22:17;99280.80;;;15.04;81.26
54369;BME280;40266;52.434;17.056;2023-03-31T08:25:01;99288.23;;;14.96;80.47
54369;BME280;40266;52.434;17.056;2023-03-31T08:27:44;99286.68;;;14.89;80.55
54369;BME280;40266;52.434;17.056;2023-03-31T08:30:28;99283.48;;;14.81;79.96
54369;BME280;40266;52.434;17.056;2023-03-31T08:33:19;99278.17;;;14.72;79.86
54369;BME280;40266;52.434;17.056;2023-03-31T08:36:04;99272.77;;;14.74;79.63
54369;BME280;40266;52.434;17.056;2023-03-31T08:38:50;99266.52;;;14.73;79.20
54369;BME280;40266;52.434;17.056;2023-03-31T08:47:19;99259.95;;;14.52;78.94
54369;BME280;40266;52.434;17.056;2023-03-31T08:50:24;99257.48;;;14.46;78.87
54369;BME280;40266;52.434;17.056;2023-03-31T08:53:15;99253.45;;;14.37;78.50
54369;BME280;40266;52.434;17.056;2023-03-31T08:56:03;99248.23;;;14.29;78.46
54369;BME280;40266;52.434;17.056;2023-03-31T08:58:50;99245.31;;;14.40;78.63
54369;BME280;40266;52.434;17.056;2023-03-31T09:11:31;99252.83;;;15.10;77.03
54369;BME280;40266;52.434;17.056;2023-03-31T09:17:29;99245.38;;;15.05;76.22
54369;BME280;40266;52.434;17.056;2023-03-31T09:20:18;99244.25;;;14.97;75.25
54369;BME280;40266;52.434;17.056;2023-03-31T09:23:26;99237.33;;;14.86;75.71
54369;BME280;40266;52.434;17.056;2023-03-31T09:26:28;99235.42;;;14.79;75.19
54369;BME280;40266;52.434;17.056;2023-03-31T09:29:57;99226.45;;;14.83;75.67
54369;BME280;40266;52.434;17.056;2023-03-31T09:32:41;99222.29;;;14.94;75.69
54369;BME280;40266;52.434;17.056;2023-03-31T09:35:25;99221.81;;;15.08;75.72
54369;BME280;40266;52.434;17.056;2023-03-31T09:38:14;99213.18;;;15.14;74.65
54369;BME280;40266;52.434;17.056;2023-03-31T09:40:59;99209.16;;;15.25;74.18
54369;BME280;40266;52.434;17.056;2023-03-31T09:43:43;99205.48;;;15.40;74.02
54369;BME280;40266;52.434;17.056;2023-03-31T09:46:35;99201.71;;;15.53;73.59
54369;BME280;40266;52.434;17.056;2023-03-31T09:49:24;99197.81;;;15.56;72.66
54369;BME280;40266;52.434;17.056;2023-03-31T09:52:15;99190.34;;;15.69;72.91
54369;BME280;40266;52.434;17.056;2023-03-31T09:55:08;99184.11;;;15.79;72.48
54369;BME280;40266;52.434;17.056;2023-03-31T09:58:15;99176.90;;;15.93;71.73
54369;BME280;40266;52.434;17.056;2023-03-31T10:01:01;99174.84;;;16.00;71.35
54369;BME280;40266;52.434;17.056;2023-03-31T10:03:51;99169.30;;;16.13;71.76
54369;BME280;40266;52.434;17.056;2023-03-31T10:06:39;99164.42;;;16.28;70.65
54369;BME280;40266;52.434;17.056;2023-03-31T10:09:26;99160.23;;;16.41;70.79
54369;BME280;40266;52.434;17.056;2023-03-31T10:12:18;99154.42;;;16.60;70.44
54369;BME280;40266;52.434;17.056;2023-03-31T10:15:33;99147.70;;;16.68;69.80
54369;BME280;40266;52.434;17.056;2023-03-31T10:18:30;99143.32;;;16.62;68.91
54369;BME280;40266;52.434;17.056;2023-03-31T10:21:24;99142.23;;;16.58;68.38
54369;BME280;40266;52.434;17.056;2023-03-31T10:24:08;99144.20;;;16.52;68.62
54369;BME280;40266;52.434;17.056;2023-03-31T10:26:56;99140.27;;;16.55;68.40
54369;BME280;40266;52.434;17.056;2023-03-31T10:29:41;99132.23;;;16.52;67.20
54369;BME280;40266;52.434;17.056;2023-03-31T10:32:29;99130.27;;;16.44;66.91
54369;BME280;40266;52.434;17.056;2023-03-31T10:35:46;99123.58;;;16.36;66.90
54369;BME280;40266;52.434;17.056;2023-03-31T10:38:35;99116.09;;;16.23;67.49
54369;BME280;40266;52.434;17.056;2023-03-31T10:41:27;99112.55;;;16.13;67.68
54369;BME280;40266;52.434;17.056;2023-03-31T10:49:56;99100.34;;;16.11;68.49
54369;BME280;40266;52.434;17.056;2023-03-31T10:52:47;99094.62;;;16.10;67.68
54369;BME280;40266;52.434;17.056;2023-03-31T10:55:38;99091.77;;;16.05;67.85
54369;BME280;40266;52.434;17.056;2023-03-31T10:59:07;99088.81;;;16.07;68.03
54369;BME280;40266;52.434;17.056;2023-03-31T11:16:57;99066.95;;;16.74;67.22
54369;BME280;40266;52.434;17.056;2023-03-31T11:20:12;99058.71;;;16.78;66.14
54369;BME280;40266;52.434;17.056;2023-03-31T11:23:17;99060.11;;;16.76;65.58
54369;BME280;40266;52.434;17.056;2023-03-31T11:26:15;99060.20;;;16.80;65.22
54369;BME280;40266;52.434;17.056;2023-03-31T11:35:47;99051.75;;;16.90;64.96
54369;BME280;40266;52.434;17.056;2023-03-31T11:39:19;99048.85;;;16.94;64.26
54369;BME280;40266;52.434;17.056;2023-03-31T11:42:05;99046.69;;;16.89;63.26
54369;BME280;40266;52.434;17.056;2023-03-31T11:45:11;99041.36;;;16.79;62.85
54369;BME280;40266;52.434;17.056;2023-03-31T11:48:00;99041.12;;;16.65;62.77
54369;BME280;40266;52.434;17.056;2023-03-31T11:50:49;99041.20;;;16.50;63.22
54369;BME280;40266;52.434;17.056;2023-03-31T11:53:35;99038.69;;;16.41;63.29
54369;BME280;40266;52.434;17.056;2023-03-31T11:56:19;99031.35;;;16.24;63.57
54369;BME280;40266;52.434;17.056;2023-03-31T11:59:05;99025.30;;;16.09;63.51
54369;BME280;40266;52.434;17.056;2023-03-31T12:01:53;99024.06;;;15.88;63.57
54369;BME280;40266;52.434;17.056;2023-03-31T12:04:43;99019.29;;;15.63;63.85
54369;BME280;40266;52.434;17.056;2023-03-31T12:10:38;99014.58;;;15.27;64.91
54369;BME280;40266;52.434;17.056;2023-03-31T12:16:34;99000.70;;;15.15;65.71
54369;BME280;40266;52.434;17.056;2023-03-31T12:19:25;99000.34;;;15.07;66.02
54369;BME280;40266;52.434;17.056;2023-03-31T12:25:01;98988.80;;;14.83;66.70
54369;BME280;40266;52.434;17.056;2023-03-31T12:27:45;98984.06;;;14.72;67.54
54369;BME280;40266;52.434;17.056;2023-03-31T12:30:35;98983.77;;;14.53;68.78
54369;BME280;40266;52.434;17.056;2023-03-31T12:33:25;98975.73;;;14.32;70.25
54369;BME280;40266;52.434;17.056;2023-03-31T12:45:42;98957.21;;;13.79;73.31
54369;BME280;40266;52.434;17.056;2023-03-31T12:48:54;98958.24;;;13.74;73.45
54369;BME280;40266;52.434;17.056;2023-03-31T13:01:22;98944.82;;;13.66;74.35
54369;BME280;40266;52.434;17.056;2023-03-31T13:04:19;98940.24;;;13.63;74.47
54369;BME280;40266;52.434;17.056;2023-03-31T13:07:04;98936.54;;;13.64;74.70
54369;BME280;40266;52.434;17.056;2023-03-31T13:13:06;98930.66;;;13.65;75.26
54369;BME280;40266;52.434;17.056;2023-03-31T13:15:56;98927.20;;;13.67;75.45
54369;BME280;40266;52.434;17.056;2023-03-31T13:18:49;98929.58;;;13.66;75.50
54369;BME280;40266;52.434;17.056;2023-03-31T13:21:52;98923.61;;;13.66;75.68
54369;BME280;40266;52.434;17.056;2023-03-31T13:24:35;98920.82;;;13.62;75.93
54369;BME280;40266;52.434;17.056;2023-03-31T13:27:29;98915.84;;;13.61;76.30
54369;BME280;40266;52.434;17.056;2023-03-31T13:33:36;98900.95;;;13.60;77.15
54369;BME280;40266;52.434;17.056;2023-03-31T14:09:28;98829.28;;;14.55;76.32
54369;BME280;40266;52.434;17.056;2023-03-31T14:12:35;98825.45;;;14.66;76.14
54369;BME280;40266;52.434;17.056;2023-03-31T14:15:21;98819.36;;;14.72;76.14
54369;BME280;40266;52.434;17.056;2023-03-31T14:18:04;98818.91;;;14.77;75.74
54369;BME280;40266;52.434;17.056;2023-03-31T14:24:11;98814.10;;;14.81;74.94
54369;BME280;40266;52.434;17.056;2023-03-31T14:30:18;98801.68;;;14.74;74.42
54369;BME280;40266;52.434;17.056;2023-03-31T14:39:10;98793.30;;;14.63;74.18
54369;BME280;40266;52.434;17.056;2023-03-31T14:41:59;98794.48;;;14.57;74.08
54369;BME280;40266;52.434;17.056;2023-03-31T14:44:47;98789.88;;;14.49;74.15
54369;BME280;40266;52.434;17.056;2023-03-31T14:47:31;98784.09;;;14.44;74.16
54369;BME280;40266;52.434;17.056;2023-03-31T14:50:20;98782.34;;;14.41;74.51
54369;BME280;40266;52.434;17.056;2023-03-31T14:53:03;98777.27;;;14.38;74.43
54369;BME280;40266;52.434;17.056;2023-03-31T14:56:16;98775.63;;;14.28;74.54
54369;BME280;40266;52.434;17.056;2023-03-31T14:59:03;98774.02;;;14.14;74.49
54369;BME280;40266;52.434;17.056;2023-03-31T15:10:41;98783.70;;;12.80;76.21
54369;BME280;40266;52.434;17.056;2023-03-31T15:17:30;98777.20;;;12.04;78.47
54369;BME280;40266;52.434;17.056;2023-03-31T15:20:51;98774.55;;;11.84;79.69
54369;BME280;40266;52.434;17.056;2023-03-31T15:23:55;98775.16;;;11.66;80.70
54369;BME280;40266;52.434;17.056;2023-03-31T15:27:03;98776.55;;;11.52;81.70
54369;BME280;40266;52.434;17.056;2023-03-31T15:33:35;98774.23;;;11.29;83.02
54369;BME280;40266;52.434;17.056;2023-03-31T15:36:30;98770.48;;;11.17;84.18
54369;BME280;40266;52.434;17.056;2023-03-31T15:39:42;98766.89;;;11.09;84.83
54369;BME280;40266;52.434;17.056;2023-03-31T15:42:34;98768.86;;;11.04;85.36
54369;BME280;40266;52.434;17.056;2023-03-31T15:51:44;98764.36;;;10.93;86.98
54369;BME280;40266;52.434;17.056;2023-03-31T15:54:54;98759.79;;;10.90;87.57
54369;BME280;40266;52.434;17.056;2023-03-31T15:57:54;98754.95;;;10.89;87.52
54369;BME280;40266;52.434;17.056;2023-03-31T16:00:47;98757.28;;;10.87;88.06
54369;BME280;40266;52.434;17.056;2023-03-31T16:03:54;98751.77;;;10.86;88.74
54369;BME280;40266;52.434;17.056;2023-03-31T16:06:51;98746.71;;;10.82;89.02
54369;BME280;40266;52.434;17.056;2023-03-31T16:10:17;98747.46;;;10.81;89.35
54369;BME280;40266;52.434;17.056;2023-03-31T16:13:06;98744.52;;;10.81;89.86
54369;BME280;40266;52.434;17.056;2023-03-31T16:16:12;98739.34;;;10.79;90.23
54369;BME280;40266;52.434;17.056;2023-03-31T16:19:20;98744.02;;;10.76;90.58
54369;BME280;40266;52.434;17.056;2023-03-31T16:22:41;98739.94;;;10.74;90.78
54369;BME280;40266;52.434;17.056;2023-03-31T16:26:30;98736.11;;;10.70;91.22
54369;BME280;40266;52.434;17.056;2023-03-31T16:30:32;98732.89;;;10.68;91.52
54369;BME280;40266;52.434;17.056;2023-03-31T16:33:05;98730.08;;;10.65;92.17
54369;BME280;40266;52.434;17.056;2023-03-31T16:36:11;98725.98;;;10.63;92.19
54369;BME280;40266;52.434;17.056;2023-03-31T16:38:59;98722.59;;;10.61;92.48
54369;BME280;40266;52.434;17.056;2023-03-31T16:42:10;98719.55;;;10.59;92.96
54369;BME280;40266;52.434;17.056;2023-03-31T16:45:02;98717.77;;;10.57;93.20
54369;BME280;40266;52.434;17.056;2023-03-31T16:51:14;98718.02;;;10.51;93.56
54369;BME280;40266;52.434;17.056;2023-03-31T16:57:52;98712.41;;;10.45;94.35
54369;BME280;40266;52.434;17.056;2023-03-31T17:04:52;98708.95;;;10.40;94.99
54369;BME280;40266;52.434;17.056;2023-03-31T17:15:13;98705.33;;;10.24;95.11
54369;BME280;40266;52.434;17.056;2023-03-31T17:18:13;98702.54;;;10.20;95.11
54369;BME280;40266;52.434;17.056;2023-03-31T17:21:26;98706.00;;;10.17;95.50
54369;BME280;40266;52.434;17.056;2023-03-31T17:24:19;98703.89;;;10.13;95.72
54369;BME280;40266;52.434;17.056;2023-03-31T17:27:10;98698.59;;;10.12;95.71
54369;BME280;40266;52.434;17.056;2023-03-31T17:30:17;98699.55;;;10.09;95.84
54369;BME280;40266;52.434;17.056;2023-03-31T17:33:16;98697.81;;;10.06;96.06
54369;BME280;40266;52.434;17.056;2023-03-31T17:36:25;98697.35;;;10.04;96.27
54369;BME280;40266;52.434;17.056;2023-03-31T17:39:29;98697.86;;;10.01;96.49
54369;BME280;40266;52.434;17.056;2023-03-31T17:42:32;98700.06;;;9.99;96.75
54369;BME280;40266;52.434;17.056;2023-03-31T17:45:24;98698.20;;;9.98;96.73
54369;BME280;40266;52.434;17.056;2023-03-31T17:48:30;98697.75;;;9.96;96.89
54369;BME280;40266;52.434;17.056;2023-03-31T17:51:47;98698.22;;;9.93;97.24
54369;BME280;40266;52.434;17.056;2023-03-31T17:54:44;98695.14;;;9.92;97.28
54369;BME280;40266;52.434;17.056;2023-03-31T17:58:18;98697.98;;;9.90;97.46
54369;BME280;40266;52.434;17.056;2023-03-31T18:08:18;98693.98;;;9.79;97.65
54369;BME280;40266;52.434;17.056;2023-03-31T18:14:53;98697.16;;;9.70;97.69
54369;BME280;40266;52.434;17.056;2023-03-31T18:21:09;98698.14;;;9.65;98.05
54369;BME280;40266;52.434;17.056;2023-03-31T18:24:15;98700.30;;;9.63;98.12
54369;BME280;40266;52.434;17.056;2023-03-31T18:27:05;98701.64;;;9.60;98.22
54369;BME280;40266;52.434;17.056;2023-03-31T18:34:07;98700.54;;;9.54;98.40
54369;BME280;40266;52.434;17.056;2023-03-31T18:36:55;98700.86;;;9.50;98.38
54369;BME280;40266;52.434;17.056;2023-03-31T18:43:38;98701.48;;;9.44;98.82
54369;BME280;40266;52.434;17.056;2023-03-31T18:50:28;98703.63;;;9.39;98.97
54369;BME280;40266;52.434;17.056;2023-03-31T18:53:35;98704.41;;;9.37;99.02
54369;BME280;40266;52.434;17.056;2023-03-31T18:56:24;98700.28;;;9.36;98.93
54369;BME280;40266;52.434;17.056;2023-03-31T19:02:45;98702.58;;;9.31;99.14
54369;BME280;40266;52.434;17.056;2023-03-31T19:06:11;98704.05;;;9.29;99.23
54369;BME280;40266;52.434;17.056;2023-03-31T19:09:38;98703.40;;;9.28;99.74